Flight Track Log - Related Links

Times and Time Zones

All times are in EDT time to prevent confusion due to time zone crossing. See the DAL5846 flight status page for this flight to view local times or setup timezone preferences in your user account.

Time Position Orientation Groundspeed Altitude Reporting Facility
EDT Latitude Longitude Course Direction KTS MPH feet Rate Location/Type
Thu 06:18:13 PM 33.9333 -118.4500 301° West 185 213 2,100  Level Southern California TRACON
Thu 06:19:08 PM 33.9236 -118.5278 261° West 234 269 4,700 3,203 Climbing Los Angeles Center
Thu 06:20:00 PM 34.2146 -118.6851 320° Northwest  Level Estimated
Thu 06:20:11 PM 33.9136 -118.6289 263° West 281 323 8,400  Level Los Angeles Center
Thu 06:21:00 PM 34.2826 -118.7546 298° West  Level Estimated
Thu 06:21:12 PM 33.9011 -118.7278 261° West 300 345 11,100  Level Los Angeles Center
Thu 06:22:00 PM 34.2686 -118.8609 261° West  Level FlightAware Approximate
Thu 06:22:14 PM 33.8858 -118.8539 262° West 356 410 13,200  Level Los Angeles Center
Thu 06:23:00 PM 34.3374 -118.9292 301° West  Level Estimated
Thu 06:23:16 PM 33.9053 -118.9747 281° West 373 429 15,600  Level Los Angeles Center
Thu 06:24:18 PM 33.9758 -119.0681 312° West 376 433 18,300 2,468 Climbing Los Angeles Center
Thu 06:25:20 PM 34.0458 -119.1603 313° West 372 428 20,700 1,872 Climbing Los Angeles Center
Thu 06:26:23 PM 34.1214 -119.2592 313° West 400 460 22,200 1,632 Climbing Los Angeles Center
Thu 06:27:25 PM 34.1994 -119.3633 312° West 417 480 24,100 1,935 Climbing Los Angeles Center
Thu 06:28:27 PM 34.2956 -119.4900 313° West 423 487 26,200 1,597 Climbing Los Angeles Center
Thu 06:29:29 PM 34.3778 -119.6003 312° West 437 503 27,400 1,210 Climbing Los Angeles Center
Thu 06:30:31 PM 34.4625 -119.7128 312° West 447 514 28,700 1,258 Climbing Los Angeles Center
Thu 06:31:33 PM 34.5525 -119.8208 315° West 453 521 30,000 629 Climbing Los Angeles Center
Thu 06:32:35 PM 34.6522 -119.9253 319° Northwest 466 536 30,000  Level Los Angeles Center
Thu 06:33:38 PM 34.7519 -120.0350 318° Northwest 479 551 30,000  Level Los Angeles Center
Thu 06:34:40 PM 34.8594 -120.1525 318° Northwest 480 552 30,000  Level Los Angeles Center
Thu 06:35:42 PM 34.9567 -120.2594 318° Northwest 477 549 30,000  Level Los Angeles Center
Thu 06:36:44 PM 35.0536 -120.3678 318° Northwest 478 550 30,000  Level Los Angeles Center
Thu 06:37:46 PM 35.1703 -120.4967 318° Northwest 475 547 30,000  Level Los Angeles Center
Thu 06:38:48 PM 35.2664 -120.6050 317° Northwest 474 545 30,000  Level Los Angeles Center
Thu 06:39:50 PM 35.3650 -120.7125 318° Northwest 475 547 30,000  Level Los Angeles Center
Thu 06:40:52 PM 35.4614 -120.8217 317° Northwest 474 545 30,000  Level Los Angeles Center
Thu 06:41:54 PM 35.5581 -120.9306 318° Northwest 472 543 30,000  Level Los Angeles Center
Thu 06:42:56 PM 35.6719 -121.0392 322° Northwest 416 479 30,000  Level Los Angeles Center
Thu 06:43:58 PM 35.7700 -121.1211 326° Northwest 425 489 30,000  Level Los Angeles Center
Thu 06:45:00 PM 35.8669 -121.2056 325° Northwest 426 490 30,000  Level Los Angeles Center
Thu 06:46:21 PM 36.0056 -121.3217 326° Northwest 429 494 30,000  Level Oakland Center
Thu 06:47:22 PM 36.1028 -121.4058 325° Northwest 427 491 30,000 -98 Level Oakland Center
Thu 06:48:24 PM 36.2006 -121.4897 325° Northwest 428 493 29,800 -1,220 Descending Oakland Center
Thu 06:49:25 PM 36.3022 -121.5761 326° Northwest 439 505 27,500 -2,262 Descending Oakland Center
Thu 06:50:26 PM 36.4014 -121.6592 326° Northwest 434 499 25,200 -2,321 Descending Oakland Center
Thu 06:51:11 PM 36.4833 -121.7333 324° Northwest 419 482 23,400 -2,229 Descending Northern Cal TRACON
Thu 06:52:11 PM 36.5667 -121.8167 321° Northwest 402 463 21,300 -1,700 Descending Northern Cal TRACON
Thu 06:53:11 PM 36.6500 -121.8833 327° Northwest 360 414 20,000 -1,368 Descending Northern Cal TRACON
Thu 06:54:05 PM 36.7167 -121.9500 321° Northwest 340 391 18,700 -1,526 Descending Northern Cal TRACON
Thu 06:55:05 PM 36.8167 -121.9833 345° North 337 388 17,100 -1,800 Descending Northern Cal TRACON
Thu 06:56:05 PM 36.9000 -122.0000 351° North 329 379 15,100 -2,000 Descending Northern Cal TRACON
Thu 06:57:05 PM 36.9833 -122.0333 342° North 320 368 13,100 -1,912 Descending Northern Cal TRACON
Thu 06:57:36 PM 37.0267 -122.0389 354° North 323 372 12,200 -1,826 Descending Oakland Center
Thu 06:58:37 PM 37.1081 -122.0617 347° North 307 353 10,300 -1,721 Descending Oakland Center
Thu 06:59:38 PM 37.1858 -122.0803 349° North 291 335 8,700 -1,131 Descending Oakland Center
Thu 07:00:39 PM 37.2592 -122.1014 347° North 275 316 8,000 -341 Descending Oakland Center
Thu 07:01:41 PM 37.3317 -122.1194 349° North 269 310 8,000 -146 Level Oakland Center
Thu 07:02:42 PM 37.4014 -122.1383 348° North 260 299 7,700 -689 Descending Oakland Center
Thu 07:03:43 PM 37.4592 -122.1547 347° North 222 255 6,600 -1,707 Descending Oakland Center
Thu 07:04:45 PM 37.5147 -122.1842 337° Northwest 188 216 4,200 -1,951 Descending Oakland Center
Thu 07:05:46 PM 37.5517 -122.2175 324° Northwest 176 203 2,600 -1,279 Descending Oakland Center
Thu 07:06:47 PM 37.5742 -122.2711 298° West 176 203 1,600 -927 Descending Oakland Center
Thu 07:07:49 PM 37.5969 -122.3175 302° West 166 191 700 -683 Descending Oakland Center
Thu 07:08:50 PM 37.6158 -122.3611 299° West 152 175 200 -492 Descending Oakland Center

Login

Don't have an account? Register now (free) for customized features, flight alerts, and more!